Time;durP1;ratioP1;P1;durP2;ratioP2;P2;SDS_P1;SDS_P2;PMS_P1;PMS_P2;Temp;Humidity;BMP_temperature;BMP_pressure;BME280_temperature;BME280_humidity;BME280_pressure;Samples;Min_cycle;Max_cycle;Signal;HPM_P1;HPM_P2
2023/04/19 00:00:08;;;;;;;;;;;;;;;10.01;71.37;100841.52;104154;278;121181;-57
2023/04/19 00:03:01;;;;;;;;;;;;;;;10.00;71.58;100838.44;104174;278;103341;-57
2023/04/19 00:05:33;;;;;;;;;;;;;;;9.99;71.66;100831.73;104121;278;113952;-56
2023/04/19 00:08:05;;;;;;;;;;;;;;;9.95;72.08;100828.21;104156;278;97285;-54
2023/04/19 00:10:38;;;;;;;;;;;;;;;9.93;72.16;100832.33;104178;278;97920;-56
2023/04/19 00:13:11;;;;;;;;;;;;;;;9.92;72.19;100829.23;104164;278;120047;-57
2023/04/19 00:15:43;;;;;;;;;;;;;;;9.88;72.38;100827.23;103926;278;105047;-55
2023/04/19 00:18:16;;;;;;;;;;;;;;;9.80;72.67;100827.01;104179;278;113719;-55
2023/04/19 00:23:54;;;;;;;;;;;;;;;9.63;73.25;100822.55;103768;281;95966;-55
2023/04/19 00:26:26;;;;;;;;;;;;;;;9.57;73.40;100822.70;104747;276;120687;-55
2023/04/19 00:28:59;;;;;;;;;;;;;;;9.46;73.84;100822.80;104286;276;106634;-54
2023/04/19 00:37:28;;;;;;;;;;;;;;;9.31;74.91;100815.88;104323;276;96421;-55
2023/04/19 00:40:01;;;;;;;;;;;;;;;9.23;75.49;100816.98;104346;276;121238;-55
2023/04/19 00:42:33;;;;;;;;;;;;;;;9.21;75.55;100817.23;104788;276;106110;-58
2023/04/19 00:51:35;;;;;;;;;;;;;;;9.20;76.31;100804.56;103960;281;95267;-58
2023/04/19 00:54:08;;;;;;;;;;;;;;;9.19;76.50;100803.06;104300;277;120660;-57
2023/04/19 00:56:40;;;;;;;;;;;;;;;9.17;76.78;100801.30;104268;277;104993;-57
2023/04/19 00:59:14;;;;;;;;;;;;;;;9.16;76.91;100797.64;104720;277;112376;-57
2023/04/19 01:01:46;;;;;;;;;;;;;;;9.12;76.82;100793.23;104740;281;96622;-56
2023/04/19 01:04:18;;;;;;;;;;;;;;;9.12;77.20;100793.23;104279;277;96578;-57
2023/04/19 01:10:18;;;;;;;;;;;;;;;9.10;77.31;100783.59;104269;275;104408;-57
2023/04/19 01:12:50;;;;;;;;;;;;;;;9.08;77.55;100775.01;104356;275;114989;-57
2023/04/19 01:15:22;;;;;;;;;;;;;;;9.07;77.72;100769.92;104341;275;94698;-57
2023/04/19 01:17:55;;;;;;;;;;;;;;;9.06;77.79;100768.67;104352;276;97329;-54
2023/04/19 01:20:27;;;;;;;;;;;;;;;9.04;77.90;100766.31;104806;276;121220;-54
2023/04/19 01:22:59;;;;;;;;;;;;;;;9.04;77.86;100763.27;104756;276;105584;-57
2023/04/19 01:25:31;;;;;;;;;;;;;;;9.04;78.05;100762.34;104294;276;113554;-57
2023/04/19 01:28:04;;;;;;;;;;;;;;;9.02;78.11;100759.71;104233;276;506615;-55
2023/04/19 01:30:37;;;;;;;;;;;;;;;9.05;78.18;100756.86;104312;276;96591;-55
2023/04/19 01:33:09;;;;;;;;;;;;;;;9.03;78.25;100757.23;104324;277;120994;-58
2023/04/19 01:35:41;;;;;;;;;;;;;;;9.01;78.44;100755.11;104323;276;105865;-58
2023/04/19 01:38:25;;;;;;;;;;;;;;;8.99;78.43;100754.80;104283;276;114597;-56
2023/04/19 01:40:57;;;;;;;;;;;;;;;8.93;78.73;100751.58;103925;279;96684;-56
2023/04/19 01:43:29;;;;;;;;;;;;;;;8.88;78.84;100750.98;104395;280;98102;-60
2023/04/19 01:46:02;;;;;;;;;;;;;;;8.92;78.98;100755.98;103975;280;120831;-59
2023/04/19 01:52:01;;;;;;;;;;;;;;;8.84;79.35;100746.02;103973;277;113110;-55
2023/04/19 01:54:33;;;;;;;;;;;;;;;8.88;79.19;100747.21;104545;277;96554;-56
2023/04/19 01:57:05;;;;;;;;;;;;;;;8.95;79.26;100739.73;104584;277;96128;-56
2023/04/19 01:59:37;;;;;;;;;;;;;;;8.92;79.35;100739.48;104182;277;120545;-56
2023/04/19 02:02:10;;;;;;;;;;;;;;;8.88;79.39;100738.74;104555;277;105959;-56
2023/04/19 02:07:28;;;;;;;;;;;;;;;8.81;79.76;100731.14;104559;277;96042;-56
2023/04/19 02:10:00;;;;;;;;;;;;;;;8.82;79.60;100731.95;104744;277;96925;-58
2023/04/19 02:15:16;;;;;;;;;;;;;;;8.69;79.96;100733.25;104151;277;105395;-58
2023/04/19 02:17:49;;;;;;;;;;;;;;;8.66;80.18;100735.95;104693;277;114829;-57
2023/04/19 02:20:22;;;;;;;;;;;;;;;8.65;80.29;100733.82;104282;277;97254;-58
2023/04/19 02:23:05;;;;;;;;;;;;;;;8.66;80.35;100731.91;104716;281;96582;-56
2023/04/19 02:25:37;;;;;;;;;;;;;;;8.65;80.24;100729.64;104577;277;120561;-56
2023/04/19 02:28:09;;;;;;;;;;;;;;;8.71;80.31;100729.58;104295;277;105468;-56
2023/04/19 02:30:41;;;;;;;;;;;;;;;8.70;80.27;100728.46;104733;277;114888;-56
2023/04/19 02:33:13;;;;;;;;;;;;;;;8.72;80.42;100730.38;104695;277;97356;-58
2023/04/19 02:35:45;;;;;;;;;;;;;;;8.73;80.54;100725.73;104738;277;96438;-59
2023/04/19 02:38:17;;;;;;;;;;;;;;;8.70;80.64;100722.17;104047;277;119417;-58
2023/04/19 02:40:50;;;;;;;;;;;;;;;8.70;80.60;100718.16;104265;277;105113;-59
2023/04/19 02:43:22;;;;;;;;;;;;;;;8.67;80.78;100710.45;104257;277;115085;-56
2023/04/19 02:45:54;;;;;;;;;;;;;;;8.65;80.72;100710.16;104264;277;96045;-56
2023/04/19 02:48:26;;;;;;;;;;;;;;;8.66;80.82;100709.83;104304;277;97765;-55
2023/04/19 02:50:58;;;;;;;;;;;;;;;8.67;80.75;100703.13;104716;277;120060;-55
2023/04/19 02:56:58;;;;;;;;;;;;;;;8.67;80.81;100692.84;104178;277;113385;-55
2023/04/19 02:59:30;;;;;;;;;;;;;;;8.66;80.87;100693.33;104622;277;96826;-55
2023/04/19 03:02:03;;;;;;;;;;;;;;;8.72;80.81;100686.75;104298;277;96724;-56
2023/04/19 03:04:35;;;;;;;;;;;;;;;8.76;80.65;100685.92;104265;277;119515;-55
2023/04/19 03:07:08;;;;;;;;;;;;;;;8.73;80.84;100682.71;104692;277;104602;-57
2023/04/19 03:09:49;;;;;;;;;;;;;;;8.69;80.89;100680.96;104258;277;114547;-56
2023/04/19 03:12:21;;;;;;;;;;;;;;;8.70;80.87;100678.31;104032;278;97002;-55
2023/04/19 03:14:53;;;;;;;;;;;;;;;8.67;80.89;100677.09;104165;278;97728;-57
2023/04/19 03:17:26;;;;;;;;;;;;;;;8.65;81.03;100677.88;104178;278;120453;-57
2023/04/19 03:19:59;;;;;;;;;;;;;;;8.64;81.12;100675.64;104186;278;105962;-57
2023/04/19 03:22:31;;;;;;;;;;;;;;;8.61;81.03;100675.42;104524;278;113010;-57
2023/04/19 03:25:03;;;;;;;;;;;;;;;8.60;81.20;100676.42;104162;278;96900;-56
2023/04/19 03:27:36;;;;;;;;;;;;;;;8.61;81.17;100674.15;104228;278;98093;-55
2023/04/19 03:30:15;;;;;;;;;;;;;;;8.62;81.16;100675.13;104538;278;119650;-57
2023/04/19 03:32:51;;;;;;;;;;;;;;;8.58;81.40;100670.88;104084;278;104863;-57
2023/04/19 03:35:25;;;;;;;;;;;;;;;8.58;81.24;100668.26;104539;277;114095;-57
2023/04/19 03:37:57;;;;;;;;;;;;;;;8.56;81.53;100667.05;104094;278;96609;-57
2023/04/19 03:40:45;;;;;;;;;;;;;;;8.56;81.53;100666.45;104155;277;97260;-57
2023/04/19 03:43:18;;;;;;;;;;;;;;;8.57;81.57;100665.05;104040;278;122005;-58
2023/04/19 03:45:50;;;;;;;;;;;;;;;8.59;81.63;100660.55;104098;267;105768;-58
2023/04/19 03:48:22;;;;;;;;;;;;;;;8.62;81.46;100661.79;104073;279;115320;-58
2023/04/19 03:50:54;;;;;;;;;;;;;;;8.64;81.37;100660.54;104047;278;94868;-55
2023/04/19 03:53:26;;;;;;;;;;;;;;;8.60;81.49;100657.71;104501;278;97691;-54
2023/04/19 03:55:58;;;;;;;;;;;;;;;8.60;81.48;100654.73;104502;279;119339;-58
2023/04/19 03:58:30;;;;;;;;;;;;;;;8.55;81.50;100653.24;104077;278;105419;-58
2023/04/19 04:01:03;;;;;;;;;;;;;;;8.58;81.60;100650.30;104078;279;114293;-59
2023/04/19 04:03:35;;;;;;;;;;;;;;;8.59;81.51;100647.45;104532;278;97441;-58
2023/04/19 04:06:07;;;;;;;;;;;;;;;8.57;81.58;100644.32;104077;278;97024;-55
2023/04/19 04:08:40;;;;;;;;;;;;;;;8.54;81.69;100642.27;104088;278;119253;-55
2023/04/19 04:11:12;;;;;;;;;;;;;;;8.49;81.78;100641.00;104118;279;105299;-58
2023/04/19 04:13:45;;;;;;;;;;;;;;;8.46;81.89;100642.84;104079;278;114408;-59
2023/04/19 04:16:17;;;;;;;;;;;;;;;8.43;82.01;100638.73;104502;278;94441;-56
2023/04/19 04:18:49;;;;;;;;;;;;;;;8.37;81.95;100640.78;104073;279;97401;-56
2023/04/19 04:21:23;;;;;;;;;;;;;;;8.36;82.01;100638.79;104497;278;121095;-56
2023/04/19 04:23:55;;;;;;;;;;;;;;;8.29;82.11;100635.19;104076;278;104883;-55
2023/04/19 04:26:29;;;;;;;;;;;;;;;8.24;82.21;100634.16;104025;278;114434;-58
2023/04/19 04:29:05;;;;;;;;;;;;;;;8.21;82.09;100635.16;104080;278;93722;-58
2023/04/19 04:31:38;;;;;;;;;;;;;;;8.17;82.24;100634.17;104004;279;97059;-58
2023/04/19 04:34:10;;;;;;;;;;;;;;;8.16;82.18;100631.96;104040;279;119699;-56
2023/04/19 04:36:42;;;;;;;;;;;;;;;8.16;82.37;100632.50;104425;279;105832;-56
2023/04/19 04:39:14;;;;;;;;;;;;;;;8.13;82.48;100630.11;104430;279;115042;-56
2023/04/19 04:41:48;;;;;;;;;;;;;;;8.10;82.56;100633.34;104408;279;93378;-56
2023/04/19 04:44:21;;;;;;;;;;;;;;;8.07;82.53;100633.67;104047;279;96875;-55
2023/04/19 04:46:53;;;;;;;;;;;;;;;8.09;82.79;100634.23;103995;279;119972;-55
2023/04/19 04:49:25;;;;;;;;;;;;;;;8.04;82.91;100634.55;104391;279;104814;-55
2023/04/19 04:51:57;;;;;;;;;;;;;;;8.08;83.08;100630.18;103996;279;114721;-56
2023/04/19 04:54:29;;;;;;;;;;;;;;;8.11;83.04;100632.05;104008;279;97704;-56
2023/04/19 04:57:02;;;;;;;;;;;;;;;8.11;83.18;100628.34;104025;279;97722;-56
2023/04/19 05:02:54;;;;;;;;;;;;;;;8.21;83.50;100631.36;103598;277;104857;-59
2023/04/19 05:05:26;;;;;;;;;;;;;;;8.24;83.55;100627.46;104152;277;114815;-59
2023/04/19 05:07:58;;;;;;;;;;;;;;;8.28;83.56;100625.04;104158;277;97255;-59
2023/04/19 05:10:30;;;;;;;;;;;;;;;8.29;83.63;100624.55;104203;277;97988;-58
2023/04/19 05:13:02;;;;;;;;;;;;;;;8.32;83.64;100618.40;104624;277;120441;-59
2023/04/19 05:15:35;;;;;;;;;;;;;;;8.36;83.77;100617.39;104166;277;105191;-55
2023/04/19 05:18:07;;;;;;;;;;;;;;;8.38;83.91;100616.58;104005;277;114705;-55
2023/04/19 05:20:40;;;;;;;;;;;;;;;8.39;84.04;100616.68;104168;277;96510;-55
2023/04/19 05:23:13;;;;;;;;;;;;;;;8.39;84.04;100611.87;104605;277;97474;-56
2023/04/19 05:28:35;;;;;;;;;;;;;;;8.43;83.70;100612.16;104064;278;103442;-58
2023/04/19 05:33:37;;;;;;;;;;;;;;;8.44;83.89;100610.73;104295;277;95805;-56
2023/04/19 05:36:10;;;;;;;;;;;;;;;8.44;83.90;100612.58;104077;278;98131;-58
2023/04/19 05:38:42;;;;;;;;;;;;;;;8.47;83.89;100610.98;104321;276;119155;-58
2023/04/19 05:41:15;;;;;;;;;;;;;;;8.48;83.88;100612.06;104281;277;105359;-57
2023/04/19 05:43:48;;;;;;;;;;;;;;;8.44;83.98;100616.38;104723;277;112885;-57
2023/04/19 05:46:20;;;;;;;;;;;;;;;8.43;83.85;100614.66;104303;277;95963;-58
2023/04/19 05:48:52;;;;;;;;;;;;;;;8.43;83.94;100614.96;104328;277;96385;-59
2023/04/19 05:51:27;;;;;;;;;;;;;;;8.43;84.12;100617.63;104288;276;120155;-56
2023/04/19 05:54:00;;;;;;;;;;;;;;;8.46;84.05;100617.91;104062;277;104685;-56
2023/04/19 05:56:32;;;;;;;;;;;;;;;8.45;83.96;100612.26;104307;277;113001;-56
2023/04/19 05:59:14;;;;;;;;;;;;;;;8.46;84.02;100610.14;104751;277;96281;-56
2023/04/19 06:01:46;;;;;;;;;;;;;;;8.49;84.17;100608.05;104246;277;97235;-56
2023/04/19 06:04:18;;;;;;;;;;;;;;;8.53;84.17;100607.41;104733;277;121194;-60
2023/04/19 06:06:50;;;;;;;;;;;;;;;8.56;84.10;100604.70;104315;277;103915;-58
2023/04/19 06:09:22;;;;;;;;;;;;;;;8.55;83.98;100603.33;104276;277;114590;-58
2023/04/19 06:14:41;;;;;;;;;;;;;;;8.53;84.15;100595.73;103836;278;98851;-58
2023/04/19 06:17:15;;;;;;;;;;;;;;;8.48;84.28;100592.18;104156;278;121563;-55
2023/04/19 06:19:47;;;;;;;;;;;;;;;8.50;84.35;100591.23;103943;279;106226;-55
2023/04/19 06:22:20;;;;;;;;;;;;;;;8.51;84.37;100588.96;104569;278;114108;-55
2023/04/19 06:25:00;;;;;;;;;;;;;;;8.48;84.42;100588.64;104173;278;96701;-55
2023/04/19 06:27:32;;;;;;;;;;;;;;;8.50;84.41;100584.59;104104;278;97255;-55
2023/04/19 06:30:06;;;;;;;;;;;;;;;8.53;84.36;100581.89;104066;278;120889;-57
2023/04/19 06:32:39;;;;;;;;;;;;;;;8.54;84.34;100579.94;104536;278;105773;-57
2023/04/19 06:35:11;;;;;;;;;;;;;;;8.61;84.36;100579.89;104098;278;114870;-55
2023/04/19 06:37:44;;;;;;;;;;;;;;;8.64;84.35;100580.08;104060;278;94968;-55
2023/04/19 06:40:19;;;;;;;;;;;;;;;8.70;84.37;100579.09;104047;279;97321;-54
2023/04/19 06:45:39;;;;;;;;;;;;;;;8.76;84.47;100579.11;104059;278;106690;-54
2023/04/19 06:48:12;;;;;;;;;;;;;;;8.77;84.59;100578.56;104114;278;114085;-56
2023/04/19 06:50:44;;;;;;;;;;;;;;;8.83;84.64;100578.31;104200;278;95175;-56
2023/04/19 06:53:16;;;;;;;;;;;;;;;8.86;84.53;100577.20;104580;278;96400;-57
2023/04/19 06:55:48;;;;;;;;;;;;;;;8.89;84.58;100581.69;104568;278;121475;-56
2023/04/19 06:58:21;;;;;;;;;;;;;;;8.95;84.59;100584.26;104181;278;103771;-53
2023/04/19 07:00:54;;;;;;;;;;;;;;;9.01;84.57;100585.04;104166;278;114472;-54
2023/04/19 07:06:43;;;;;;;;;;;;;;;9.22;84.36;100597.27;104133;276;96151;-53
2023/04/19 07:09:16;;;;;;;;;;;;;;;9.22;84.44;100596.58;104323;277;119397;-55
2023/04/19 07:11:50;;;;;;;;;;;;;;;9.25;84.60;100599.52;104623;276;103724;-55
2023/04/19 07:17:39;;;;;;;;;;;;;;;9.40;84.72;100594.90;104313;275;95629;-55
2023/04/19 07:20:14;;;;;;;;;;;;;;;9.64;84.96;100594.62;104834;275;97828;-57
2023/04/19 07:22:47;;;;;;;;;;;;;;;9.86;85.02;100590.20;104418;275;120549;-57
2023/04/19 07:25:19;;;;;;;;;;;;;;;9.97;84.95;100588.06;104431;275;103994;-57
2023/04/19 07:31:19;;;;;;;;;;;;;;;9.94;84.40;100583.85;104371;275;95066;-57
2023/04/19 07:33:51;;;;;;;;;;;;;;;9.89;84.24;100586.42;104075;278;97823;-57
2023/04/19 07:36:23;;;;;;;;;;;;;;;9.75;84.40;100584.42;104295;276;121576;-57
2023/04/19 07:39:02;;;;;;;;;;;;;;;9.71;84.31;100586.21;104316;276;105984;-55
2023/04/19 07:41:34;;;;;;;;;;;;;;;9.69;84.19;100584.27;104411;278;114267;-55
2023/04/19 07:44:06;;;;;;;;;;;;;;;9.63;84.05;100582.48;104072;278;94133;-57
2023/04/19 07:46:42;;;;;;;;;;;;;;;9.55;83.97;100587.02;104109;278;97570;-57
2023/04/19 07:52:45;;;;;;;;;;;;;;;9.45;84.10;100580.81;104107;276;104025;-54
2023/04/19 07:55:17;;;;;;;;;;;;;;;9.44;84.13;100581.45;104283;276;114638;-56
2023/04/19 07:57:49;;;;;;;;;;;;;;;9.40;84.29;100584.42;104279;276;94478;-57
2023/04/19 08:00:22;;;;;;;;;;;;;;;9.37;84.09;100587.83;104299;276;98474;-57
2023/04/19 08:02:55;;;;;;;;;;;;;;;9.38;84.13;100587.40;104298;276;119552;-58
2023/04/19 08:05:29;;;;;;;;;;;;;;;9.41;84.13;100590.20;104322;276;103831;-55
2023/04/19 08:08:01;;;;;;;;;;;;;;;9.44;84.28;100592.55;103903;279;112924;-55
2023/04/19 08:10:34;;;;;;;;;;;;;;;9.52;84.09;100597.73;103995;279;96920;-55
2023/04/19 08:13:07;;;;;;;;;;;;;;;9.57;84.38;100594.49;104416;279;96502;-55
2023/04/19 08:15:39;;;;;;;;;;;;;;;9.70;84.30;100591.21;104378;279;119868;-56
2023/04/19 08:18:11;;;;;;;;;;;;;;;9.81;84.26;100593.95;103966;279;105866;-55
2023/04/19 08:20:45;;;;;;;;;;;;;;;9.90;83.97;100587.14;103958;279;114730;-55
2023/04/19 08:23:17;;;;;;;;;;;;;;;10.05;83.72;100589.36;104392;279;95222;-55
2023/04/19 08:25:49;;;;;;;;;;;;;;;10.20;83.70;100588.08;104000;279;97681;-55
2023/04/19 08:34:27;;;;;;;;;;;;;;;10.69;83.20;100585.78;104106;277;113746;-55
2023/04/19 08:37:01;;;;;;;;;;;;;;;10.82;82.64;100584.73;104323;276;93585;-57
2023/04/19 08:39:33;;;;;;;;;;;;;;;10.84;82.28;100587.00;104789;276;96735;-54
2023/04/19 08:42:07;;;;;;;;;;;;;;;10.83;82.05;100584.16;104785;280;120770;-54
2023/04/19 08:54:12;;;;;;;;;;;;;;;10.77;81.43;100586.98;104340;277;96046;-54
2023/04/19 08:56:44;;;;;;;;;;;;;;;10.64;81.30;100586.12;104734;277;121321;-54
2023/04/19 08:59:16;;;;;;;;;;;;;;;10.63;81.47;100583.90;104330;277;104465;-56
2023/04/19 09:01:48;;;;;;;;;;;;;;;10.67;81.42;100589.54;104314;277;112814;-56
2023/04/19 09:04:21;;;;;;;;;;;;;;;10.73;81.44;100589.37;104292;277;96909;-57
2023/04/19 09:07:08;;;;;;;;;;;;;;;10.79;81.17;100591.78;104746;277;96925;-56
2023/04/19 09:13:06;;;;;;;;;;;;;;;10.90;81.26;100589.11;104043;275;103465;-57
2023/04/19 09:15:39;;;;;;;;;;;;;;;10.89;81.21;100592.80;104425;276;114391;-58
2023/04/19 09:18:13;;;;;;;;;;;;;;;10.85;81.25;100597.61;104402;275;93828;-58
2023/04/19 09:20:45;;;;;;;;;;;;;;;10.83;81.39;100596.42;104819;275;96072;-57
2023/04/19 09:23:18;;;;;;;;;;;;;;;10.81;81.46;100600.50;104838;275;119578;-57
2023/04/19 09:26:05;;;;;;;;;;;;;;;10.83;81.35;100603.48;104422;275;106040;-54
2023/04/19 09:31:56;;;;;;;;;;;;;;;10.78;81.48;100607.31;104068;278;92575;-56
2023/04/19 09:38:01;;;;;;;;;;;;;;;10.68;81.02;100608.38;104243;276;118556;-54
2023/04/19 09:40:33;;;;;;;;;;;;;;;10.68;80.89;100608.51;104796;276;106116;-54
2023/04/19 09:43:06;;;;;;;;;;;;;;;10.73;81.00;100606.20;104278;276;114401;-54
2023/04/19 09:45:45;;;;;;;;;;;;;;;10.77;80.81;100609.33;104321;276;94011;-56
2023/04/19 09:48:17;;;;;;;;;;;;;;;10.69;80.30;100610.80;104312;276;96448;-57
2023/04/19 09:50:56;;;;;;;;;;;;;;;10.61;80.26;100613.25;104325;276;120391;-56
2023/04/19 09:53:32;;;;;;;;;;;;;;;10.65;80.21;100610.17;104330;276;105109;-56
2023/04/19 09:56:05;;;;;;;;;;;;;;;10.65;80.14;100609.86;104321;276;115102;-54
2023/04/19 09:58:38;;;;;;;;;;;;;;;10.71;80.21;100609.52;104281;276;95798;-54
2023/04/19 10:01:12;;;;;;;;;;;;;;;10.76;80.14;100610.66;104304;276;97504;-57
2023/04/19 10:03:48;;;;;;;;;;;;;;;10.84;80.12;100611.43;104806;276;120843;-57
2023/04/19 10:06:21;;;;;;;;;;;;;;;10.84;79.66;100608.94;104308;277;105740;-56
2023/04/19 10:08:54;;;;;;;;;;;;;;;10.85;79.54;100610.91;104297;277;113986;-56
2023/04/19 10:11:27;;;;;;;;;;;;;;;10.86;79.48;100611.02;104261;277;91948;-56
2023/04/19 10:14:00;;;;;;;;;;;;;;;10.80;79.44;100612.64;104312;277;97811;-56
2023/04/19 10:16:36;;;;;;;;;;;;;;;10.79;79.69;100612.08;104314;277;119609;-55
2023/04/19 10:19:12;;;;;;;;;;;;;;;10.76;79.32;100612.15;104781;277;105667;-56
2023/04/19 10:21:46;;;;;;;;;;;;;;;10.77;79.26;100611.84;104755;265;114198;-56
2023/04/19 10:24:20;;;;;;;;;;;;;;;10.78;79.14;100615.63;104390;275;96513;-56
2023/04/19 10:27:12;;;;;;;;;;;;;;;10.76;79.15;100612.85;104403;276;96504;-56
2023/04/19 10:30:09;;;;;;;;;;;;;;;10.78;79.17;100612.08;104848;276;120303;-57
2023/04/19 10:32:42;;;;;;;;;;;;;;;10.80;79.13;100613.45;104398;275;106291;-55
2023/04/19 10:35:20;;;;;;;;;;;;;;;10.80;79.10;100613.05;104364;275;114521;-55
2023/04/19 10:41:13;;;;;;;;;;;;;;;10.80;79.17;100618.83;104371;288;95231;-57
2023/04/19 10:43:48;;;;;;;;;;;;;;;10.76;79.19;100623.22;104845;275;121344;-57
2023/04/19 10:46:38;;;;;;;;;;;;;;;10.79;79.06;100623.30;104411;276;105916;-56
2023/04/19 10:49:12;;;;;;;;;;;;;;;10.79;79.11;100621.17;104392;275;113368;-55
2023/04/19 10:51:50;;;;;;;;;;;;;;;10.75;79.26;100615.67;104417;276;96414;-55
2023/04/19 10:54:33;;;;;;;;;;;;;;;10.80;79.42;100620.31;104841;276;95108;-57
2023/04/19 10:57:05;;;;;;;;;;;;;;;10.86;79.63;100623.48;104411;276;120666;-58
2023/04/19 10:59:39;;;;;;;;;;;;;;;10.91;79.61;100619.23;104427;276;104657;-55
2023/04/19 11:02:32;;;;;;;;;;;;;;;10.99;79.40;100625.49;104409;275;113159;-54
2023/04/19 11:05:05;;;;;;;;;;;;;;;11.16;79.17;100620.50;104319;277;94383;-57
2023/04/19 11:07:44;;;;;;;;;;;;;;;11.18;79.07;100623.11;104775;277;97253;-57
2023/04/19 11:10:28;;;;;;;;;;;;;;;11.24;78.75;100623.84;104275;278;120157;-54
2023/04/19 11:13:00;;;;;;;;;;;;;;;11.18;78.56;100626.11;104268;277;104477;-56
2023/04/19 11:15:32;;;;;;;;;;;;;;;11.27;78.52;100625.76;104270;277;114558;-57
2023/04/19 11:18:04;;;;;;;;;;;;;;;11.43;78.61;100623.51;104278;277;93353;-56
2023/04/19 11:20:36;;;;;;;;;;;;;;;11.61;78.38;100625.92;104727;277;96431;-57
2023/04/19 11:23:17;;;;;;;;;;;;;;;11.71;78.28;100626.34;104262;277;121279;-55
2023/04/19 11:25:51;;;;;;;;;;;;;;;11.83;78.43;100627.55;104295;277;105805;-55
2023/04/19 11:28:23;;;;;;;;;;;;;;;11.96;78.28;100622.48;104043;278;114067;-57
2023/04/19 11:30:56;;;;;;;;;;;;;;;12.08;78.06;100623.06;104298;277;95561;-57
2023/04/19 11:33:33;;;;;;;;;;;;;;;12.14;78.34;100623.54;104311;277;96961;-55
2023/04/19 11:36:11;;;;;;;;;;;;;;;12.25;78.08;100621.98;104263;277;119838;-55
2023/04/19 11:38:46;;;;;;;;;;;;;;;12.40;77.92;100623.11;104750;277;105867;-57
2023/04/19 11:41:18;;;;;;;;;;;;;;;12.48;77.26;100623.29;104758;277;115105;-57
2023/04/19 11:43:54;;;;;;;;;;;;;;;12.51;77.12;100622.79;104751;277;93566;-54
2023/04/19 11:46:26;;;;;;;;;;;;;;;12.60;76.80;100618.17;104009;277;97094;-54
2023/04/19 11:48:58;;;;;;;;;;;;;;;12.68;76.84;100616.77;104259;277;120018;-55
2023/04/19 11:51:30;;;;;;;;;;;;;;;12.77;77.14;100615.22;104717;277;104709;-55
2023/04/19 11:54:12;;;;;;;;;;;;;;;12.82;76.98;100617.75;104263;277;113669;-55
2023/04/19 11:57:02;;;;;;;;;;;;;;;12.94;76.95;100615.88;104269;277;96623;-55
2023/04/19 11:59:36;;;;;;;;;;;;;;;13.03;76.91;100619.67;104278;277;98231;-56
2023/04/19 12:02:10;;;;;;;;;;;;;;;13.12;76.96;100621.06;104254;277;120119;-55
2023/04/19 12:04:43;;;;;;;;;;;;;;;13.27;76.96;100614.79;104274;277;105701;-55
2023/04/19 12:07:15;;;;;;;;;;;;;;;13.38;76.60;100612.30;104287;277;114747;-55
2023/04/19 12:09:49;;;;;;;;;;;;;;;13.39;76.42;100610.92;104695;277;93585;-55
2023/04/19 12:12:34;;;;;;;;;;;;;;;13.45;75.99;100612.15;104713;277;98041;-55
2023/04/19 12:15:10;;;;;;;;;;;;;;;13.55;75.96;100611.15;104270;277;119064;-57
2023/04/19 12:18:00;;;;;;;;;;;;;;;13.66;75.82;100608.98;104021;278;106608;-57
2023/04/19 12:20:34;;;;;;;;;;;;;;;13.83;75.50;100608.72;104069;278;113867;-55
2023/04/19 12:23:09;;;;;;;;;;;;;;;13.97;75.42;100614.11;104481;278;94259;-55
2023/04/19 12:25:42;;;;;;;;;;;;;;;13.93;74.87;100618.53;104086;278;98114;-55
2023/04/19 12:28:15;;;;;;;;;;;;;;;13.81;74.51;100613.11;104046;278;120871;-54
2023/04/19 12:30:47;;;;;;;;;;;;;;;13.74;74.24;100616.48;104523;278;104812;-55
2023/04/19 12:33:19;;;;;;;;;;;;;;;13.57;73.98;100619.42;104500;278;114938;-55
2023/04/19 12:35:51;;;;;;;;;;;;;;;13.36;74.10;100623.71;104082;278;94716;-57
2023/04/19 12:38:24;;;;;;;;;;;;;;;13.15;73.91;100623.78;104532;278;96677;-57
2023/04/19 12:40:57;;;;;;;;;;;;;;;12.91;74.14;100625.91;104109;278;120962;-57
2023/04/19 12:43:30;;;;;;;;;;;;;;;12.79;74.28;100626.03;104097;278;106325;-57
2023/04/19 12:49:30;;;;;;;;;;;;;;;12.68;74.52;100635.21;104103;278;92762;-58
2023/04/19 12:55:24;;;;;;;;;;;;;;;12.56;74.79;100636.91;104297;276;119633;-56
2023/04/19 13:01:12;;;;;;;;;;;;;;;12.55;74.94;100633.11;104232;276;111756;-55
2023/04/19 13:03:45;;;;;;;;;;;;;;;12.57;75.04;100631.67;104782;277;93547;-55
2023/04/19 13:06:17;;;;;;;;;;;;;;;12.57;74.96;100630.88;104319;277;97582;-57
2023/04/19 13:08:50;;;;;;;;;;;;;;;12.61;75.03;100631.77;104766;277;121914;-57
2023/04/19 13:11:36;;;;;;;;;;;;;;;12.63;74.69;100632.54;104086;277;105437;-55
2023/04/19 13:14:08;;;;;;;;;;;;;;;12.63;74.65;100632.37;104443;278;114234;-55
2023/04/19 13:16:41;;;;;;;;;;;;;;;12.63;74.35;100635.59;104064;279;97591;-55
2023/04/19 13:19:13;;;;;;;;;;;;;;;12.75;74.29;100634.39;104084;278;97672;-55
2023/04/19 13:21:47;;;;;;;;;;;;;;;12.83;73.30;100630.77;104241;277;120970;-56
2023/04/19 13:24:20;;;;;;;;;;;;;;;12.94;73.25;100631.02;104743;277;105111;-56
2023/04/19 13:26:52;;;;;;;;;;;;;;;13.06;72.96;100630.34;104275;277;113592;-54
2023/04/19 13:29:24;;;;;;;;;;;;;;;13.27;73.03;100625.89;104293;277;94261;-54
2023/04/19 13:31:57;;;;;;;;;;;;;;;13.52;72.91;100622.41;104307;277;96173;-56
2023/04/19 13:34:37;;;;;;;;;;;;;;;13.70;72.71;100626.61;104306;277;120016;-56
2023/04/19 13:37:09;;;;;;;;;;;;;;;13.75;72.55;100625.29;104240;277;105703;-56
2023/04/19 13:39:43;;;;;;;;;;;;;;;13.88;72.30;100619.65;104296;277;115371;-56
2023/04/19 13:42:15;;;;;;;;;;;;;;;13.99;72.13;100621.71;104270;277;94028;-56
2023/04/19 13:44:48;;;;;;;;;;;;;;;14.13;71.93;100623.80;104302;277;97458;-57
2023/04/19 13:47:21;;;;;;;;;;;;;;;14.30;71.61;100623.14;104278;277;119481;-56
2023/04/19 13:49:53;;;;;;;;;;;;;;;14.21;70.64;100627.02;104057;279;104140;-54
2023/04/19 13:52:26;;;;;;;;;;;;;;;14.05;70.46;100620.73;104264;277;113775;-53
2023/04/19 13:54:59;;;;;;;;;;;;;;;13.94;70.47;100621.75;104703;277;94391;-56
2023/04/19 13:57:32;;;;;;;;;;;;;;;13.89;70.52;100617.98;104725;277;96284;-56
2023/04/19 14:00:08;;;;;;;;;;;;;;;13.94;70.38;100621.29;104292;277;120666;-58
2023/04/19 14:02:42;;;;;;;;;;;;;;;13.97;70.28;100619.41;104289;277;105511;-58
2023/04/19 14:05:15;;;;;;;;;;;;;;;13.95;70.17;100617.86;104306;273;114629;-55
2023/04/19 14:07:47;;;;;;;;;;;;;;;13.96;70.02;100616.16;104270;277;93850;-55
2023/04/19 14:16:30;;;;;;;;;;;;;;;13.95;69.71;100609.88;104291;276;103908;-57
2023/04/19 14:19:03;;;;;;;;;;;;;;;13.96;69.72;100609.05;104801;276;112893;-57
2023/04/19 14:21:35;;;;;;;;;;;;;;;13.83;69.87;100609.23;104299;276;93919;-55
2023/04/19 14:24:08;;;;;;;;;;;;;;;13.69;69.70;100610.29;104315;276;97327;-55
2023/04/19 14:30:05;;;;;;;;;;;;;;;13.49;69.74;100606.24;104280;276;104734;-55
2023/04/19 14:32:38;;;;;;;;;;;;;;;13.44;69.67;100607.22;104311;276;113424;-55
2023/04/19 14:35:11;;;;;;;;;;;;;;;13.38;69.81;100605.95;104310;276;93116;-57
2023/04/19 14:37:43;;;;;;;;;;;;;;;13.34;70.18;100607.10;104334;276;95726;-57
2023/04/19 14:40:16;;;;;;;;;;;;;;;13.34;69.88;100602.77;104312;276;120136;-58
2023/04/19 14:42:48;;;;;;;;;;;;;;;13.32;69.95;100607.13;104306;276;104483;-56
2023/04/19 14:45:21;;;;;;;;;;;;;;;13.32;69.99;100598.70;104758;276;113170;-55
2023/04/19 14:47:53;;;;;;;;;;;;;;;13.35;70.09;100600.42;104315;276;92338;-54
2023/04/19 14:50:25;;;;;;;;;;;;;;;13.37;70.04;100602.69;104320;276;96236;-54
2023/04/19 14:52:57;;;;;;;;;;;;;;;13.37;69.99;100602.73;104790;276;119684;-55
2023/04/19 14:55:29;;;;;;;;;;;;;;;13.37;69.85;100606.74;104815;276;104860;-55